Other Surface Observations
Issued by NWS Great Falls, MT

Home | Current Version | Previous Version | Text Only | Print | Product List | Glossary On
Versions: 1 2 3 4 5 6 7 8 9 10 11 12 13 14 15 16 17 18 19 20 21 22 23 24 25 26 27 28 29 30 31 32 33 34 35 36 37 38 39 40 41 42 43 44 45 46 47 48 49 50
341
SXUS55 KTFX 271129
OSOTFX
AREA AWOS OBSERVATIONS
NATIONAL WEATHER SERVICE GREAT FALLS MT
0529 AM MDT SAT AUG 27 2016

METAR KPO1 271130Z AUTO 00000KT 10SM 06/04 A2991 RMK POPLAR
METAR K1S3 271130Z AUTO 00000KT 10SM 11/09 A2990 RMK FORSYTH
METAR KS71 271130Z AUTO 08006KT 10SM 10/07 A2980 RMK CHINOOK
METAR K38S 271130Z AUTO 27003KT 10SM 10/01 A2999 RMK DEER LODGE
METAR K6S5 271130Z AUTO 17013KT 10SM 14/00 A2993 RMK HAMILTON
METAR KS59 271130Z AUTO 00000KT 10SM 13/06 A2980 RMK LIBBY
METAR K88M 271130Z AUTO 14009KT 10SM 18/05 A2977 RMK EUREKA



USA.gov is the U.S. government's official web portal to all federal, state and local government web resources and services.